sensor_id;sensor_type;location;lat;lon;timestamp;P1;durP1;ratioP1;P2;durP2;ratioP2
20649;SDS011;10484;48.736;9.332;2023-09-19T00:01:22;1.10;;;0.90;;
20649;SDS011;10484;48.736;9.332;2023-09-19T00:03:49;0.97;;;0.70;;
20649;SDS011;10484;48.736;9.332;2023-09-19T00:06:14;1.13;;;0.80;;
20649;SDS011;10484;48.736;9.332;2023-09-19T00:08:40;1.57;;;0.70;;
20649;SDS011;10484;48.736;9.332;2023-09-19T00:11:09;1.23;;;0.80;;
20649;SDS011;10484;48.736;9.332;2023-09-19T00:13:35;1.30;;;0.87;;
20649;SDS011;10484;48.736;9.332;2023-09-19T00:16:01;1.80;;;1.10;;
20649;SDS011;10484;48.736;9.332;2023-09-19T00:18:35;0.80;;;0.80;;
20649;SDS011;10484;48.736;9.332;2023-09-19T00:21:02;1.17;;;0.90;;
20649;SDS011;10484;48.736;9.332;2023-09-19T00:23:29;0.93;;;0.80;;
20649;SDS011;10484;48.736;9.332;2023-09-19T00:25:58;0.70;;;0.70;;
20649;SDS011;10484;48.736;9.332;2023-09-19T00:28:24;0.70;;;0.50;;
20649;SDS011;10484;48.736;9.332;2023-09-19T00:30:51;0.97;;;0.87;;
20649;SDS011;10484;48.736;9.332;2023-09-19T00:33:16;1.07;;;0.87;;
20649;SDS011;10484;48.736;9.332;2023-09-19T00:35:50;0.70;;;0.63;;
20649;SDS011;10484;48.736;9.332;2023-09-19T00:38:18;0.80;;;0.70;;
20649;SDS011;10484;48.736;9.332;2023-09-19T00:40:49;0.80;;;0.77;;
20649;SDS011;10484;48.736;9.332;2023-09-19T00:43:19;0.90;;;0.80;;
20649;SDS011;10484;48.736;9.332;2023-09-19T00:45:49;1.40;;;0.70;;
20649;SDS011;10484;48.736;9.332;2023-09-19T00:48:16;1.60;;;0.70;;
20649;SDS011;10484;48.736;9.332;2023-09-19T00:50:43;1.00;;;0.73;;
20649;SDS011;10484;48.736;9.332;2023-09-19T00:53:12;1.87;;;0.80;;
20649;SDS011;10484;48.736;9.332;2023-09-19T00:55:40;1.10;;;0.80;;
20649;SDS011;10484;48.736;9.332;2023-09-19T00:58:07;1.77;;;1.00;;
20649;SDS011;10484;48.736;9.332;2023-09-19T01:00:33;1.17;;;0.77;;
20649;SDS011;10484;48.736;9.332;2023-09-19T01:03:00;2.90;;;0.80;;
20649;SDS011;10484;48.736;9.332;2023-09-19T01:05:28;0.80;;;0.60;;
20649;SDS011;10484;48.736;9.332;2023-09-19T01:07:55;1.13;;;0.50;;
20649;SDS011;10484;48.736;9.332;2023-09-19T01:10:20;0.97;;;0.73;;
20649;SDS011;10484;48.736;9.332;2023-09-19T01:12:52;0.90;;;0.67;;
20649;SDS011;10484;48.736;9.332;2023-09-19T01:32:09;0.90;;;0.70;;
20649;SDS011;10484;48.736;9.332;2023-09-19T01:37:13;1.07;;;0.97;;
20649;SDS011;10484;48.736;9.332;2023-09-19T01:39:44;1.13;;;0.80;;
20649;SDS011;10484;48.736;9.332;2023-09-19T01:42:18;1.47;;;1.00;;
20649;SDS011;10484;48.736;9.332;2023-09-19T01:47:32;0.53;;;0.50;;
20649;SDS011;10484;48.736;9.332;2023-09-19T01:50:12;0.83;;;0.50;;
20649;SDS011;10484;48.736;9.332;2023-09-19T01:52:57;1.00;;;0.80;;
20649;SDS011;10484;48.736;9.332;2023-09-19T01:55:29;0.90;;;0.67;;
20649;SDS011;10484;48.736;9.332;2023-09-19T01:58:01;0.70;;;0.50;;
20649;SDS011;10484;48.736;9.332;2023-09-19T02:00:32;0.80;;;0.70;;
20649;SDS011;10484;48.736;9.332;2023-09-19T02:03:01;1.13;;;0.77;;
20649;SDS011;10484;48.736;9.332;2023-09-19T02:05:28;0.70;;;0.60;;
20649;SDS011;10484;48.736;9.332;2023-09-19T02:07:54;1.00;;;0.77;;
20649;SDS011;10484;48.736;9.332;2023-09-19T02:10:21;1.33;;;0.70;;
20649;SDS011;10484;48.736;9.332;2023-09-19T02:12:47;0.63;;;0.60;;
20649;SDS011;10484;48.736;9.332;2023-09-19T02:15:13;0.80;;;0.60;;
20649;SDS011;10484;48.736;9.332;2023-09-19T02:17:40;1.80;;;0.70;;
20649;SDS011;10484;48.736;9.332;2023-09-19T02:20:08;1.67;;;0.87;;
20649;SDS011;10484;48.736;9.332;2023-09-19T02:22:35;1.33;;;0.67;;
20649;SDS011;10484;48.736;9.332;2023-09-19T02:25:01;1.60;;;0.77;;
20649;SDS011;10484;48.736;9.332;2023-09-19T02:27:26;2.93;;;0.70;;
20649;SDS011;10484;48.736;9.332;2023-09-19T02:29:52;0.67;;;0.53;;
20649;SDS011;10484;48.736;9.332;2023-09-19T02:32:18;0.80;;;0.80;;
20649;SDS011;10484;48.736;9.332;2023-09-19T02:34:43;1.73;;;0.70;;
20649;SDS011;10484;48.736;9.332;2023-09-19T02:37:10;0.70;;;0.60;;
20649;SDS011;10484;48.736;9.332;2023-09-19T02:39:35;1.47;;;0.63;;
20649;SDS011;10484;48.736;9.332;2023-09-19T02:42:01;1.07;;;0.70;;
20649;SDS011;10484;48.736;9.332;2023-09-19T02:44:29;0.80;;;0.60;;
20649;SDS011;10484;48.736;9.332;2023-09-19T02:46:54;2.90;;;0.50;;
20649;SDS011;10484;48.736;9.332;2023-09-19T02:49:22;0.80;;;0.70;;
20649;SDS011;10484;48.736;9.332;2023-09-19T02:51:47;0.73;;;0.50;;
20649;SDS011;10484;48.736;9.332;2023-09-19T02:54:13;0.80;;;0.60;;
20649;SDS011;10484;48.736;9.332;2023-09-19T02:56:40;2.23;;;0.83;;
20649;SDS011;10484;48.736;9.332;2023-09-19T02:59:06;1.07;;;0.57;;
20649;SDS011;10484;48.736;9.332;2023-09-19T03:01:32;1.67;;;0.83;;
20649;SDS011;10484;48.736;9.332;2023-09-19T03:03:58;1.00;;;0.70;;
20649;SDS011;10484;48.736;9.332;2023-09-19T03:06:24;0.87;;;0.70;;
20649;SDS011;10484;48.736;9.332;2023-09-19T03:08:50;0.80;;;0.60;;
20649;SDS011;10484;48.736;9.332;2023-09-19T03:11:16;1.33;;;0.70;;
20649;SDS011;10484;48.736;9.332;2023-09-19T03:13:46;0.93;;;0.87;;
20649;SDS011;10484;48.736;9.332;2023-09-19T03:16:16;0.97;;;0.90;;
20649;SDS011;10484;48.736;9.332;2023-09-19T03:18:42;0.97;;;0.73;;
20649;SDS011;10484;48.736;9.332;2023-09-19T03:21:07;0.60;;;0.60;;
20649;SDS011;10484;48.736;9.332;2023-09-19T03:23:33;1.07;;;0.70;;
20649;SDS011;10484;48.736;9.332;2023-09-19T03:25:58;1.60;;;0.90;;
20649;SDS011;10484;48.736;9.332;2023-09-19T03:28:24;0.70;;;0.60;;
20649;SDS011;10484;48.736;9.332;2023-09-19T03:31:00;1.40;;;0.60;;
20649;SDS011;10484;48.736;9.332;2023-09-19T03:33:26;1.93;;;0.80;;
20649;SDS011;10484;48.736;9.332;2023-09-19T03:35:52;0.80;;;0.80;;
20649;SDS011;10484;48.736;9.332;2023-09-19T03:38:18;1.43;;;0.80;;
20649;SDS011;10484;48.736;9.332;2023-09-19T03:40:44;2.10;;;0.70;;
20649;SDS011;10484;48.736;9.332;2023-09-19T03:43:10;1.00;;;0.80;;
20649;SDS011;10484;48.736;9.332;2023-09-19T03:45:35;1.47;;;0.63;;
20649;SDS011;10484;48.736;9.332;2023-09-19T03:48:07;1.03;;;0.70;;
20649;SDS011;10484;48.736;9.332;2023-09-19T03:50:36;0.53;;;0.53;;
20649;SDS011;10484;48.736;9.332;2023-09-19T03:53:02;1.87;;;0.80;;
20649;SDS011;10484;48.736;9.332;2023-09-19T03:55:28;0.73;;;0.70;;
20649;SDS011;10484;48.736;9.332;2023-09-19T03:57:55;0.80;;;0.70;;
20649;SDS011;10484;48.736;9.332;2023-09-19T04:00:21;1.53;;;0.73;;
20649;SDS011;10484;48.736;9.332;2023-09-19T04:02:51;1.90;;;1.17;;
20649;SDS011;10484;48.736;9.332;2023-09-19T04:05:17;0.63;;;0.60;;
20649;SDS011;10484;48.736;9.332;2023-09-19T04:07:43;0.87;;;0.73;;
20649;SDS011;10484;48.736;9.332;2023-09-19T04:10:09;2.13;;;0.70;;
20649;SDS011;10484;48.736;9.332;2023-09-19T04:12:36;0.73;;;0.73;;
20649;SDS011;10484;48.736;9.332;2023-09-19T04:15:03;1.13;;;0.90;;
20649;SDS011;10484;48.736;9.332;2023-09-19T04:17:32;1.20;;;0.60;;
20649;SDS011;10484;48.736;9.332;2023-09-19T04:19:58;1.13;;;0.67;;
20649;SDS011;10484;48.736;9.332;2023-09-19T04:22:24;0.70;;;0.70;;
20649;SDS011;10484;48.736;9.332;2023-09-19T04:24:50;3.37;;;0.70;;
20649;SDS011;10484;48.736;9.332;2023-09-19T04:27:16;0.60;;;0.60;;
20649;SDS011;10484;48.736;9.332;2023-09-19T04:29:42;1.63;;;0.90;;
20649;SDS011;10484;48.736;9.332;2023-09-19T04:32:08;1.00;;;0.80;;
20649;SDS011;10484;48.736;9.332;2023-09-19T04:34:34;0.60;;;0.60;;
20649;SDS011;10484;48.736;9.332;2023-09-19T04:37:00;1.33;;;0.60;;
20649;SDS011;10484;48.736;9.332;2023-09-19T04:39:26;1.30;;;0.80;;
20649;SDS011;10484;48.736;9.332;2023-09-19T04:41:53;3.67;;;0.77;;
20649;SDS011;10484;48.736;9.332;2023-09-19T04:44:18;0.80;;;0.80;;
20649;SDS011;10484;48.736;9.332;2023-09-19T04:46:44;1.47;;;0.80;;
20649;SDS011;10484;48.736;9.332;2023-09-19T04:49:11;1.00;;;0.77;;
20649;SDS011;10484;48.736;9.332;2023-09-19T04:51:37;0.80;;;0.70;;
20649;SDS011;10484;48.736;9.332;2023-09-19T04:54:03;1.70;;;0.80;;
20649;SDS011;10484;48.736;9.332;2023-09-19T04:56:29;0.70;;;0.70;;
20649;SDS011;10484;48.736;9.332;2023-09-19T04:58:54;1.00;;;0.77;;
20649;SDS011;10484;48.736;9.332;2023-09-19T05:01:20;1.27;;;1.00;;
20649;SDS011;10484;48.736;9.332;2023-09-19T05:03:47;1.83;;;1.20;;
20649;SDS011;10484;48.736;9.332;2023-09-19T05:06:17;1.37;;;0.87;;
20649;SDS011;10484;48.736;9.332;2023-09-19T05:08:43;1.03;;;0.80;;
20649;SDS011;10484;48.736;9.332;2023-09-19T05:11:08;1.10;;;0.60;;
20649;SDS011;10484;48.736;9.332;2023-09-19T05:13:34;0.67;;;0.67;;
20649;SDS011;10484;48.736;9.332;2023-09-19T05:16:02;0.90;;;0.70;;
20649;SDS011;10484;48.736;9.332;2023-09-19T05:18:28;1.70;;;0.67;;
20649;SDS011;10484;48.736;9.332;2023-09-19T05:20:54;0.90;;;0.70;;
20649;SDS011;10484;48.736;9.332;2023-09-19T05:23:19;1.27;;;0.77;;
20649;SDS011;10484;48.736;9.332;2023-09-19T05:25:46;2.00;;;0.90;;
20649;SDS011;10484;48.736;9.332;2023-09-19T05:28:11;0.70;;;0.70;;
20649;SDS011;10484;48.736;9.332;2023-09-19T05:30:39;0.67;;;0.67;;
20649;SDS011;10484;48.736;9.332;2023-09-19T05:33:06;1.10;;;1.00;;
20649;SDS011;10484;48.736;9.332;2023-09-19T05:35:32;1.57;;;1.00;;
20649;SDS011;10484;48.736;9.332;2023-09-19T05:37:58;1.43;;;1.00;;
20649;SDS011;10484;48.736;9.332;2023-09-19T05:40:24;0.70;;;0.70;;
20649;SDS011;10484;48.736;9.332;2023-09-19T05:42:50;0.80;;;0.70;;
20649;SDS011;10484;48.736;9.332;2023-09-19T05:45:16;0.70;;;0.67;;
20649;SDS011;10484;48.736;9.332;2023-09-19T05:47:47;1.37;;;0.90;;
20649;SDS011;10484;48.736;9.332;2023-09-19T05:50:14;3.27;;;1.07;;
20649;SDS011;10484;48.736;9.332;2023-09-19T05:52:41;0.97;;;0.90;;
20649;SDS011;10484;48.736;9.332;2023-09-19T05:55:09;1.00;;;0.80;;
20649;SDS011;10484;48.736;9.332;2023-09-19T05:57:35;1.53;;;0.70;;
20649;SDS011;10484;48.736;9.332;2023-09-19T06:00:04;0.80;;;0.80;;
20649;SDS011;10484;48.736;9.332;2023-09-19T06:02:38;1.20;;;0.80;;
20649;SDS011;10484;48.736;9.332;2023-09-19T06:05:05;0.80;;;0.80;;
20649;SDS011;10484;48.736;9.332;2023-09-19T06:07:32;4.50;;;1.20;;
20649;SDS011;10484;48.736;9.332;2023-09-19T06:10:02;1.57;;;1.10;;
20649;SDS011;10484;48.736;9.332;2023-09-19T06:12:33;1.10;;;0.97;;
20649;SDS011;10484;48.736;9.332;2023-09-19T06:15:03;2.00;;;0.83;;
20649;SDS011;10484;48.736;9.332;2023-09-19T06:17:30;1.40;;;1.00;;
20649;SDS011;10484;48.736;9.332;2023-09-19T06:19:56;0.83;;;0.73;;
20649;SDS011;10484;48.736;9.332;2023-09-19T06:22:22;1.17;;;0.90;;
20649;SDS011;10484;48.736;9.332;2023-09-19T06:24:49;1.20;;;1.10;;
20649;SDS011;10484;48.736;9.332;2023-09-19T06:27:15;1.17;;;1.07;;
20649;SDS011;10484;48.736;9.332;2023-09-19T06:29:40;0.90;;;0.90;;
20649;SDS011;10484;48.736;9.332;2023-09-19T06:32:07;2.03;;;0.90;;
20649;SDS011;10484;48.736;9.332;2023-09-19T06:34:33;2.50;;;1.00;;
20649;SDS011;10484;48.736;9.332;2023-09-19T06:36:59;1.30;;;0.80;;
20649;SDS011;10484;48.736;9.332;2023-09-19T06:39:25;1.77;;;1.07;;
20649;SDS011;10484;48.736;9.332;2023-09-19T06:41:51;1.70;;;1.23;;
20649;SDS011;10484;48.736;9.332;2023-09-19T06:44:20;1.23;;;1.13;;
20649;SDS011;10484;48.736;9.332;2023-09-19T06:46:47;1.00;;;0.90;;
20649;SDS011;10484;48.736;9.332;2023-09-19T06:49:15;1.53;;;1.07;;
20649;SDS011;10484;48.736;9.332;2023-09-19T06:51:40;1.27;;;1.10;;
20649;SDS011;10484;48.736;9.332;2023-09-19T06:54:07;1.60;;;1.00;;
20649;SDS011;10484;48.736;9.332;2023-09-19T06:56:32;2.30;;;1.30;;
20649;SDS011;10484;48.736;9.332;2023-09-19T06:58:58;1.90;;;1.27;;
20649;SDS011;10484;48.736;9.332;2023-09-19T07:01:23;1.80;;;1.03;;
20649;SDS011;10484;48.736;9.332;2023-09-19T07:03:50;1.20;;;1.10;;
20649;SDS011;10484;48.736;9.332;2023-09-19T07:06:16;2.73;;;1.10;;
20649;SDS011;10484;48.736;9.332;2023-09-19T07:08:42;1.53;;;1.00;;
20649;SDS011;10484;48.736;9.332;2023-09-19T07:11:08;0.80;;;0.77;;
20649;SDS011;10484;48.736;9.332;2023-09-19T07:13:33;1.57;;;0.80;;
20649;SDS011;10484;48.736;9.332;2023-09-19T07:16:00;1.30;;;1.20;;
20649;SDS011;10484;48.736;9.332;2023-09-19T07:18:26;1.37;;;1.13;;
20649;SDS011;10484;48.736;9.332;2023-09-19T07:20:56;1.33;;;1.00;;
20649;SDS011;10484;48.736;9.332;2023-09-19T07:23:26;1.20;;;0.90;;
20649;SDS011;10484;48.736;9.332;2023-09-19T07:25:51;1.10;;;0.83;;
20649;SDS011;10484;48.736;9.332;2023-09-19T07:28:21;1.60;;;1.03;;
20649;SDS011;10484;48.736;9.332;2023-09-19T07:30:47;1.47;;;1.00;;
20649;SDS011;10484;48.736;9.332;2023-09-19T07:33:13;1.60;;;1.50;;
20649;SDS011;10484;48.736;9.332;2023-09-19T07:35:39;1.83;;;0.97;;
20649;SDS011;10484;48.736;9.332;2023-09-19T07:38:05;1.50;;;1.10;;
20649;SDS011;10484;48.736;9.332;2023-09-19T07:40:31;1.27;;;1.10;;
20649;SDS011;10484;48.736;9.332;2023-09-19T07:42:57;1.33;;;1.10;;
20649;SDS011;10484;48.736;9.332;2023-09-19T07:45:26;1.53;;;1.30;;
20649;SDS011;10484;48.736;9.332;2023-09-19T07:47:55;1.53;;;0.80;;
20649;SDS011;10484;48.736;9.332;2023-09-19T07:50:21;1.33;;;1.23;;
20649;SDS011;10484;48.736;9.332;2023-09-19T07:52:47;1.47;;;0.90;;
20649;SDS011;10484;48.736;9.332;2023-09-19T07:55:13;2.53;;;1.33;;
20649;SDS011;10484;48.736;9.332;2023-09-19T07:57:42;2.07;;;1.53;;
20649;SDS011;10484;48.736;9.332;2023-09-19T08:00:09;1.40;;;1.07;;
20649;SDS011;10484;48.736;9.332;2023-09-19T08:02:36;3.57;;;1.10;;
20649;SDS011;10484;48.736;9.332;2023-09-19T08:05:03;1.33;;;1.10;;
20649;SDS011;10484;48.736;9.332;2023-09-19T08:07:31;1.20;;;1.00;;
20649;SDS011;10484;48.736;9.332;2023-09-19T08:09:57;0.90;;;0.90;;
20649;SDS011;10484;48.736;9.332;2023-09-19T08:12:23;2.23;;;1.27;;
20649;SDS011;10484;48.736;9.332;2023-09-19T08:14:49;1.17;;;1.00;;
20649;SDS011;10484;48.736;9.332;2023-09-19T08:17:15;2.30;;;0.93;;
20649;SDS011;10484;48.736;9.332;2023-09-19T08:19:41;1.33;;;1.20;;
20649;SDS011;10484;48.736;9.332;2023-09-19T08:22:10;1.73;;;0.90;;
20649;SDS011;10484;48.736;9.332;2023-09-19T08:24:36;1.53;;;1.10;;
20649;SDS011;10484;48.736;9.332;2023-09-19T08:27:01;2.53;;;1.30;;
20649;SDS011;10484;48.736;9.332;2023-09-19T08:29:29;1.10;;;1.00;;
20649;SDS011;10484;48.736;9.332;2023-09-19T08:31:58;0.93;;;0.83;;
20649;SDS011;10484;48.736;9.332;2023-09-19T08:34:24;2.97;;;0.93;;
20649;SDS011;10484;48.736;9.332;2023-09-19T08:36:50;1.10;;;0.90;;
20649;SDS011;10484;48.736;9.332;2023-09-19T08:39:18;1.93;;;1.27;;
20649;SDS011;10484;48.736;9.332;2023-09-19T08:41:44;10.23;;;1.20;;
20649;SDS011;10484;48.736;9.332;2023-09-19T08:44:10;1.10;;;1.00;;
20649;SDS011;10484;48.736;9.332;2023-09-19T08:46:35;1.03;;;0.93;;
20649;SDS011;10484;48.736;9.332;2023-09-19T08:49:08;1.20;;;1.10;;
20649;SDS011;10484;48.736;9.332;2023-09-19T08:51:43;2.33;;;1.13;;
20649;SDS011;10484;48.736;9.332;2023-09-19T08:54:24;1.20;;;1.00;;
20649;SDS011;10484;48.736;9.332;2023-09-19T08:56:54;1.30;;;1.03;;
20649;SDS011;10484;48.736;9.332;2023-09-19T08:59:22;1.70;;;1.20;;
20649;SDS011;10484;48.736;9.332;2023-09-19T09:01:52;1.40;;;1.20;;
20649;SDS011;10484;48.736;9.332;2023-09-19T09:04:19;1.17;;;1.00;;
20649;SDS011;10484;48.736;9.332;2023-09-19T09:06:45;1.77;;;1.20;;
20649;SDS011;10484;48.736;9.332;2023-09-19T09:09:14;1.00;;;0.90;;
20649;SDS011;10484;48.736;9.332;2023-09-19T09:11:40;1.87;;;1.10;;
20649;SDS011;10484;48.736;9.332;2023-09-19T09:14:06;1.07;;;0.97;;
20649;SDS011;10484;48.736;9.332;2023-09-19T09:16:35;0.97;;;0.97;;
20649;SDS011;10484;48.736;9.332;2023-09-19T09:19:00;1.13;;;0.70;;
20649;SDS011;10484;48.736;9.332;2023-09-19T09:21:26;1.43;;;1.10;;
20649;SDS011;10484;48.736;9.332;2023-09-19T09:23:53;1.23;;;0.90;;
20649;SDS011;10484;48.736;9.332;2023-09-19T09:29:03;1.00;;;0.90;;
20649;SDS011;10484;48.736;9.332;2023-09-19T09:31:29;1.90;;;1.20;;
20649;SDS011;10484;48.736;9.332;2023-09-19T09:33:55;2.30;;;0.80;;
20649;SDS011;10484;48.736;9.332;2023-09-19T09:39:01;1.43;;;1.30;;
20649;SDS011;10484;48.736;9.332;2023-09-19T09:41:41;1.37;;;1.07;;
20649;SDS011;10484;48.736;9.332;2023-09-19T09:44:13;1.33;;;1.00;;
20649;SDS011;10484;48.736;9.332;2023-09-19T09:46:44;1.87;;;1.00;;
20649;SDS011;10484;48.736;9.332;2023-09-19T09:49:22;1.20;;;1.10;;
20649;SDS011;10484;48.736;9.332;2023-09-19T09:52:05;1.63;;;1.03;;
20649;SDS011;10484;48.736;9.332;2023-09-19T09:55:01;1.73;;;1.17;;
20649;SDS011;10484;48.736;9.332;2023-09-19T09:57:30;1.27;;;1.10;;
20649;SDS011;10484;48.736;9.332;2023-09-19T09:59:57;1.43;;;1.30;;
20649;SDS011;10484;48.736;9.332;2023-09-19T10:05:22;1.63;;;1.03;;
20649;SDS011;10484;48.736;9.332;2023-09-19T10:07:53;1.50;;;1.40;;
20649;SDS011;10484;48.736;9.332;2023-09-19T10:10:36;1.20;;;1.10;;
20649;SDS011;10484;48.736;9.332;2023-09-19T10:13:19;2.30;;;1.00;;
20649;SDS011;10484;48.736;9.332;2023-09-19T10:15:49;1.27;;;1.17;;
20649;SDS011;10484;48.736;9.332;2023-09-19T10:18:18;2.00;;;1.40;;
20649;SDS011;10484;48.736;9.332;2023-09-19T10:20:46;1.50;;;1.40;;
20649;SDS011;10484;48.736;9.332;2023-09-19T10:23:14;1.27;;;1.17;;
20649;SDS011;10484;48.736;9.332;2023-09-19T10:25:45;1.30;;;1.20;;
20649;SDS011;10484;48.736;9.332;2023-09-19T10:28:13;1.07;;;0.93;;
20649;SDS011;10484;48.736;9.332;2023-09-19T10:30:44;1.63;;;1.20;;
20649;SDS011;10484;48.736;9.332;2023-09-19T10:33:12;2.43;;;1.23;;
20649;SDS011;10484;48.736;9.332;2023-09-19T10:35:40;1.90;;;1.20;;
20649;SDS011;10484;48.736;9.332;2023-09-19T10:38:09;1.40;;;1.27;;
20649;SDS011;10484;48.736;9.332;2023-09-19T10:40:36;1.00;;;0.90;;
20649;SDS011;10484;48.736;9.332;2023-09-19T10:43:08;2.67;;;1.23;;
20649;SDS011;10484;48.736;9.332;2023-09-19T10:45:39;1.13;;;1.03;;
20649;SDS011;10484;48.736;9.332;2023-09-19T10:48:06;1.73;;;1.60;;
20649;SDS011;10484;48.736;9.332;2023-09-19T10:53:29;2.10;;;1.20;;
20649;SDS011;10484;48.736;9.332;2023-09-19T10:56:20;2.30;;;1.03;;
20649;SDS011;10484;48.736;9.332;2023-09-19T10:59:15;2.60;;;1.30;;
20649;SDS011;10484;48.736;9.332;2023-09-19T11:01:52;2.33;;;1.30;;
20649;SDS011;10484;48.736;9.332;2023-09-19T11:04:31;2.10;;;1.30;;
20649;SDS011;10484;48.736;9.332;2023-09-19T11:07:04;1.00;;;0.80;;
20649;SDS011;10484;48.736;9.332;2023-09-19T11:09:48;1.63;;;1.17;;
20649;SDS011;10484;48.736;9.332;2023-09-19T11:14:57;1.90;;;1.43;;
20649;SDS011;10484;48.736;9.332;2023-09-19T11:17:30;1.40;;;1.17;;
20649;SDS011;10484;48.736;9.332;2023-09-19T11:30:46;1.90;;;1.23;;
20649;SDS011;10484;48.736;9.332;2023-09-19T11:43:54;1.80;;;1.40;;
20649;SDS011;10484;48.736;9.332;2023-09-19T11:46:53;1.33;;;1.10;;
20649;SDS011;10484;48.736;9.332;2023-09-19T11:49:30;1.50;;;1.40;;
20649;SDS011;10484;48.736;9.332;2023-09-19T11:52:02;3.27;;;1.50;;
20649;SDS011;10484;48.736;9.332;2023-09-19T11:54:33;1.57;;;1.20;;
20649;SDS011;10484;48.736;9.332;2023-09-19T11:57:02;1.83;;;1.13;;
20649;SDS011;10484;48.736;9.332;2023-09-19T11:59:28;1.70;;;1.30;;
20649;SDS011;10484;48.736;9.332;2023-09-19T12:04:33;3.33;;;1.97;;
20649;SDS011;10484;48.736;9.332;2023-09-19T12:07:13;1.63;;;1.50;;
20649;SDS011;10484;48.736;9.332;2023-09-19T12:09:44;1.43;;;1.30;;
20649;SDS011;10484;48.736;9.332;2023-09-19T12:12:22;1.97;;;1.60;;
20649;SDS011;10484;48.736;9.332;2023-09-19T12:14:52;1.60;;;1.20;;
20649;SDS011;10484;48.736;9.332;2023-09-19T12:17:19;1.67;;;1.20;;
20649;SDS011;10484;48.736;9.332;2023-09-19T12:19:55;1.80;;;1.60;;
20649;SDS011;10484;48.736;9.332;2023-09-19T12:22:22;1.30;;;1.20;;
20649;SDS011;10484;48.736;9.332;2023-09-19T12:24:47;1.50;;;1.23;;
20649;SDS011;10484;48.736;9.332;2023-09-19T12:27:15;1.70;;;1.60;;
20649;SDS011;10484;48.736;9.332;2023-09-19T12:29:51;3.60;;;1.30;;
20649;SDS011;10484;48.736;9.332;2023-09-19T12:32:33;1.97;;;1.50;;
20649;SDS011;10484;48.736;9.332;2023-09-19T12:35:00;1.50;;;1.40;;
20649;SDS011;10484;48.736;9.332;2023-09-19T12:37:32;1.23;;;1.13;;
20649;SDS011;10484;48.736;9.332;2023-09-19T12:40:04;1.27;;;1.10;;
20649;SDS011;10484;48.736;9.332;2023-09-19T12:42:47;2.10;;;1.33;;
20649;SDS011;10484;48.736;9.332;2023-09-19T12:45:13;1.83;;;1.37;;
20649;SDS011;10484;48.736;9.332;2023-09-19T12:48:17;1.43;;;1.13;;
20649;SDS011;10484;48.736;9.332;2023-09-19T12:51:02;2.27;;;1.30;;
20649;SDS011;10484;48.736;9.332;2023-09-19T12:53:42;1.10;;;1.00;;
20649;SDS011;10484;48.736;9.332;2023-09-19T12:56:10;2.80;;;1.43;;
20649;SDS011;10484;48.736;9.332;2023-09-19T12:58:48;1.43;;;1.10;;
20649;SDS011;10484;48.736;9.332;2023-09-19T13:01:21;1.70;;;1.33;;
20649;SDS011;10484;48.736;9.332;2023-09-19T13:04:11;1.90;;;1.20;;
20649;SDS011;10484;48.736;9.332;2023-09-19T13:06:38;1.20;;;0.90;;
20649;SDS011;10484;48.736;9.332;2023-09-19T13:09:08;3.40;;;1.10;;
20649;SDS011;10484;48.736;9.332;2023-09-19T13:11:36;2.57;;;1.10;;
20649;SDS011;10484;48.736;9.332;2023-09-19T13:14:18;1.13;;;1.03;;
20649;SDS011;10484;48.736;9.332;2023-09-19T13:25:03;1.53;;;1.00;;
20649;SDS011;10484;48.736;9.332;2023-09-19T13:27:33;1.10;;;1.00;;
20649;SDS011;10484;48.736;9.332;2023-09-19T13:29:59;1.47;;;1.23;;
20649;SDS011;10484;48.736;9.332;2023-09-19T13:32:25;0.80;;;0.80;;
20649;SDS011;10484;48.736;9.332;2023-09-19T13:34:51;1.63;;;1.17;;
20649;SDS011;10484;48.736;9.332;2023-09-19T13:37:17;1.23;;;1.03;;
20649;SDS011;10484;48.736;9.332;2023-09-19T13:39:43;3.13;;;1.00;;
20649;SDS011;10484;48.736;9.332;2023-09-19T13:42:12;0.80;;;0.80;;
20649;SDS011;10484;48.736;9.332;2023-09-19T13:44:38;1.43;;;1.13;;
20649;SDS011;10484;48.736;9.332;2023-09-19T13:47:06;1.13;;;1.03;;
20649;SDS011;10484;48.736;9.332;2023-09-19T13:49:34;1.23;;;1.10;;
20649;SDS011;10484;48.736;9.332;2023-09-19T13:52:00;1.47;;;0.97;;
20649;SDS011;10484;48.736;9.332;2023-09-19T13:54:28;2.70;;;0.70;;
20649;SDS011;10484;48.736;9.332;2023-09-19T13:56:54;1.23;;;0.97;;
20649;SDS011;10484;48.736;9.332;2023-09-19T13:59:20;0.83;;;0.67;;
20649;SDS011;10484;48.736;9.332;2023-09-19T14:01:48;1.50;;;1.00;;
20649;SDS011;10484;48.736;9.332;2023-09-19T14:04:14;1.30;;;1.00;;
20649;SDS011;10484;48.736;9.332;2023-09-19T14:06:41;1.30;;;1.10;;
20649;SDS011;10484;48.736;9.332;2023-09-19T14:09:07;1.17;;;1.07;;
20649;SDS011;10484;48.736;9.332;2023-09-19T14:11:33;0.93;;;0.80;;
20649;SDS011;10484;48.736;9.332;2023-09-19T14:13:58;1.10;;;0.93;;
20649;SDS011;10484;48.736;9.332;2023-09-19T14:16:25;1.17;;;0.83;;
20649;SDS011;10484;48.736;9.332;2023-09-19T14:18:55;1.13;;;0.90;;
20649;SDS011;10484;48.736;9.332;2023-09-19T14:21:20;1.00;;;0.80;;
20649;SDS011;10484;48.736;9.332;2023-09-19T14:23:46;1.60;;;1.10;;
20649;SDS011;10484;48.736;9.332;2023-09-19T14:26:13;1.43;;;0.90;;
20649;SDS011;10484;48.736;9.332;2023-09-19T14:28:39;1.00;;;0.90;;
20649;SDS011;10484;48.736;9.332;2023-09-19T14:31:05;1.77;;;1.20;;
20649;SDS011;10484;48.736;9.332;2023-09-19T14:33:32;1.30;;;1.20;;
20649;SDS011;10484;48.736;9.332;2023-09-19T14:35:57;0.80;;;0.80;;
20649;SDS011;10484;48.736;9.332;2023-09-19T14:38:23;0.90;;;0.83;;
20649;SDS011;10484;48.736;9.332;2023-09-19T14:40:58;1.53;;;1.17;;
20649;SDS011;10484;48.736;9.332;2023-09-19T14:43:24;1.80;;;1.17;;
20649;SDS011;10484;48.736;9.332;2023-09-19T14:45:50;1.07;;;0.80;;
20649;SDS011;10484;48.736;9.332;2023-09-19T14:48:16;1.10;;;1.00;;
20649;SDS011;10484;48.736;9.332;2023-09-19T14:50:42;0.77;;;0.70;;
20649;SDS011;10484;48.736;9.332;2023-09-19T14:53:09;0.93;;;0.83;;
20649;SDS011;10484;48.736;9.332;2023-09-19T14:55:38;1.93;;;0.97;;
20649;SDS011;10484;48.736;9.332;2023-09-19T14:58:06;1.47;;;1.23;;
20649;SDS011;10484;48.736;9.332;2023-09-19T15:00:33;1.00;;;0.83;;
20649;SDS011;10484;48.736;9.332;2023-09-19T15:03:00;0.80;;;0.80;;
20649;SDS011;10484;48.736;9.332;2023-09-19T15:05:26;1.07;;;0.93;;
20649;SDS011;10484;48.736;9.332;2023-09-19T15:07:54;2.00;;;1.10;;
20649;SDS011;10484;48.736;9.332;2023-09-19T15:10:21;1.30;;;1.20;;
20649;SDS011;10484;48.736;9.332;2023-09-19T15:12:48;1.30;;;1.17;;
20649;SDS011;10484;48.736;9.332;2023-09-19T15:15:13;1.20;;;1.10;;
20649;SDS011;10484;48.736;9.332;2023-09-19T15:17:39;1.17;;;1.07;;
20649;SDS011;10484;48.736;9.332;2023-09-19T15:20:05;1.17;;;1.07;;
20649;SDS011;10484;48.736;9.332;2023-09-19T15:22:34;3.20;;;1.23;;
20649;SDS011;10484;48.736;9.332;2023-09-19T15:25:01;0.93;;;0.80;;
20649;SDS011;10484;48.736;9.332;2023-09-19T15:27:27;1.20;;;1.10;;
20649;SDS011;10484;48.736;9.332;2023-09-19T15:29:55;1.00;;;0.90;;
20649;SDS011;10484;48.736;9.332;2023-09-19T15:32:23;1.00;;;0.87;;
20649;SDS011;10484;48.736;9.332;2023-09-19T15:34:49;1.40;;;1.23;;
20649;SDS011;10484;48.736;9.332;2023-09-19T15:37:14;1.03;;;0.93;;
20649;SDS011;10484;48.736;9.332;2023-09-19T15:39:40;1.20;;;1.10;;
20649;SDS011;10484;48.736;9.332;2023-09-19T15:42:06;1.03;;;0.80;;
20649;SDS011;10484;48.736;9.332;2023-09-19T15:44:32;1.30;;;1.20;;
20649;SDS011;10484;48.736;9.332;2023-09-19T15:46:58;1.00;;;0.90;;
20649;SDS011;10484;48.736;9.332;2023-09-19T15:49:24;1.27;;;1.07;;
20649;SDS011;10484;48.736;9.332;2023-09-19T15:51:49;1.07;;;0.97;;
20649;SDS011;10484;48.736;9.332;2023-09-19T15:54:15;1.43;;;1.27;;
20649;SDS011;10484;48.736;9.332;2023-09-19T15:56:42;1.47;;;1.00;;
20649;SDS011;10484;48.736;9.332;2023-09-19T15:59:10;0.90;;;0.73;;
20649;SDS011;10484;48.736;9.332;2023-09-19T16:01:40;1.77;;;1.20;;
20649;SDS011;10484;48.736;9.332;2023-09-19T16:04:07;1.70;;;0.80;;